sensor_id;sensor_type;location;lat;lon;timestamp;P1;durP1;ratioP1;P2;durP2;ratioP2
75297;SDS011;63896;45.990;18.688;2022-10-22T00:01:03;24.38;;;12.73;;
75297;SDS011;63896;45.990;18.688;2022-10-22T00:04:06;20.83;;;11.77;;
75297;SDS011;63896;45.990;18.688;2022-10-22T00:07:09;20.33;;;12.02;;
75297;SDS011;63896;45.990;18.688;2022-10-22T00:10:12;20.42;;;12.60;;
75297;SDS011;63896;45.990;18.688;2022-10-22T00:13:15;22.80;;;12.88;;
75297;SDS011;63896;45.990;18.688;2022-10-22T00:16:18;25.83;;;13.23;;
75297;SDS011;63896;45.990;18.688;2022-10-22T00:19:21;21.07;;;12.63;;
75297;SDS011;63896;45.990;18.688;2022-10-22T00:22:23;21.48;;;13.50;;
75297;SDS011;63896;45.990;18.688;2022-10-22T00:25:26;27.92;;;14.93;;
75297;SDS011;63896;45.990;18.688;2022-10-22T00:28:29;25.13;;;14.45;;
75297;SDS011;63896;45.990;18.688;2022-10-22T00:31:32;23.70;;;14.32;;
75297;SDS011;63896;45.990;18.688;2022-10-22T00:34:35;30.07;;;14.30;;
75297;SDS011;63896;45.990;18.688;2022-10-22T00:37:37;22.90;;;13.82;;
75297;SDS011;63896;45.990;18.688;2022-10-22T00:40:40;25.80;;;14.32;;
75297;SDS011;63896;45.990;18.688;2022-10-22T00:47:35;19.75;;;12.88;;
75297;SDS011;63896;45.990;18.688;2022-10-22T00:50:45;21.93;;;12.57;;
75297;SDS011;63896;45.990;18.688;2022-10-22T00:53:50;19.60;;;11.38;;
75297;SDS011;63896;45.990;18.688;2022-10-22T00:56:57;18.20;;;11.38;;
75297;SDS011;63896;45.990;18.688;2022-10-22T01:00:00;19.08;;;11.30;;
75297;SDS011;63896;45.990;18.688;2022-10-22T01:03:04;26.67;;;14.35;;
75297;SDS011;63896;45.990;18.688;2022-10-22T01:06:09;32.13;;;15.63;;
75297;SDS011;63896;45.990;18.688;2022-10-22T01:19:12;32.15;;;16.30;;
75297;SDS011;63896;45.990;18.688;2022-10-22T01:29:17;20.63;;;11.50;;
75297;SDS011;63896;45.990;18.688;2022-10-22T01:32:25;21.10;;;11.50;;
75297;SDS011;63896;45.990;18.688;2022-10-22T01:35:33;20.25;;;11.82;;
75297;SDS011;63896;45.990;18.688;2022-10-22T01:38:39;15.47;;;10.70;;
75297;SDS011;63896;45.990;18.688;2022-10-22T01:41:43;32.28;;;16.45;;
75297;SDS011;63896;45.990;18.688;2022-10-22T01:44:47;41.42;;;22.35;;
75297;SDS011;63896;45.990;18.688;2022-10-22T01:47:55;38.85;;;19.55;;
75297;SDS011;63896;45.990;18.688;2022-10-22T01:55:01;23.40;;;11.70;;
75297;SDS011;63896;45.990;18.688;2022-10-22T02:07:20;15.73;;;8.82;;
75297;SDS011;63896;45.990;18.688;2022-10-22T02:10:26;13.30;;;8.17;;
75297;SDS011;63896;45.990;18.688;2022-10-22T02:13:42;14.32;;;8.63;;
75297;SDS011;63896;45.990;18.688;2022-10-22T02:16:48;12.80;;;7.93;;
75297;SDS011;63896;45.990;18.688;2022-10-22T02:19:56;18.23;;;8.35;;
75297;SDS011;63896;45.990;18.688;2022-10-22T02:23:02;12.45;;;7.47;;
75297;SDS011;63896;45.990;18.688;2022-10-22T02:29:29;11.88;;;7.68;;
75297;SDS011;63896;45.990;18.688;2022-10-22T02:32:41;15.80;;;8.32;;
75297;SDS011;63896;45.990;18.688;2022-10-22T02:35:57;12.82;;;8.27;;
75297;SDS011;63896;45.990;18.688;2022-10-22T02:39:02;11.35;;;7.85;;
75297;SDS011;63896;45.990;18.688;2022-10-22T02:42:05;14.80;;;7.90;;
75297;SDS011;63896;45.990;18.688;2022-10-22T02:45:10;11.68;;;7.13;;
75297;SDS011;63896;45.990;18.688;2022-10-22T02:48:13;13.10;;;6.95;;
75297;SDS011;63896;45.990;18.688;2022-10-22T02:51:16;13.43;;;5.82;;
75297;SDS011;63896;45.990;18.688;2022-10-22T02:54:19;8.93;;;5.25;;
75297;SDS011;63896;45.990;18.688;2022-10-22T02:57:22;9.70;;;4.83;;
75297;SDS011;63896;45.990;18.688;2022-10-22T03:00:25;8.50;;;4.72;;
75297;SDS011;63896;45.990;18.688;2022-10-22T03:03:27;9.02;;;4.90;;
75297;SDS011;63896;45.990;18.688;2022-10-22T03:06:30;10.82;;;4.45;;
75297;SDS011;63896;45.990;18.688;2022-10-22T03:09:33;7.10;;;4.55;;
75297;SDS011;63896;45.990;18.688;2022-10-22T03:12:36;8.27;;;4.63;;
75297;SDS011;63896;45.990;18.688;2022-10-22T03:15:39;11.15;;;4.47;;
75297;SDS011;63896;45.990;18.688;2022-10-22T03:18:42;7.40;;;4.47;;
75297;SDS011;63896;45.990;18.688;2022-10-22T03:24:53;11.25;;;5.13;;
75297;SDS011;63896;45.990;18.688;2022-10-22T03:28:03;8.13;;;5.00;;
75297;SDS011;63896;45.990;18.688;2022-10-22T03:31:08;8.52;;;4.70;;
75297;SDS011;63896;45.990;18.688;2022-10-22T03:34:11;8.20;;;4.40;;
75297;SDS011;63896;45.990;18.688;2022-10-22T03:37:14;6.40;;;4.10;;
75297;SDS011;63896;45.990;18.688;2022-10-22T03:40:18;9.15;;;4.75;;
75297;SDS011;63896;45.990;18.688;2022-10-22T03:43:22;6.83;;;4.50;;
75297;SDS011;63896;45.990;18.688;2022-10-22T03:46:24;9.70;;;4.50;;
75297;SDS011;63896;45.990;18.688;2022-10-22T03:49:27;8.18;;;4.35;;
75297;SDS011;63896;45.990;18.688;2022-10-22T03:52:34;8.43;;;5.03;;
75297;SDS011;63896;45.990;18.688;2022-10-22T03:55:39;8.48;;;5.38;;
75297;SDS011;63896;45.990;18.688;2022-10-22T03:58:42;9.37;;;4.70;;
75297;SDS011;63896;45.990;18.688;2022-10-22T04:01:45;13.32;;;5.63;;
75297;SDS011;63896;45.990;18.688;2022-10-22T04:04:48;12.98;;;4.80;;
75297;SDS011;63896;45.990;18.688;2022-10-22T04:07:51;8.48;;;3.88;;
75297;SDS011;63896;45.990;18.688;2022-10-22T04:10:53;7.47;;;3.97;;
75297;SDS011;63896;45.990;18.688;2022-10-22T04:13:56;5.10;;;3.47;;
75297;SDS011;63896;45.990;18.688;2022-10-22T04:16:59;6.18;;;3.88;;
75297;SDS011;63896;45.990;18.688;2022-10-22T04:20:02;10.88;;;3.75;;
75297;SDS011;63896;45.990;18.688;2022-10-22T04:23:06;7.30;;;4.03;;
75297;SDS011;63896;45.990;18.688;2022-10-22T04:26:09;9.60;;;5.10;;
75297;SDS011;63896;45.990;18.688;2022-10-22T04:29:12;7.50;;;4.73;;
75297;SDS011;63896;45.990;18.688;2022-10-22T04:32:17;8.30;;;4.10;;
75297;SDS011;63896;45.990;18.688;2022-10-22T04:35:20;7.13;;;3.92;;
75297;SDS011;63896;45.990;18.688;2022-10-22T04:38:23;5.95;;;4.00;;
75297;SDS011;63896;45.990;18.688;2022-10-22T04:41:30;7.53;;;3.90;;
75297;SDS011;63896;45.990;18.688;2022-10-22T04:44:34;6.63;;;3.47;;
75297;SDS011;63896;45.990;18.688;2022-10-22T04:47:37;6.93;;;3.65;;
75297;SDS011;63896;45.990;18.688;2022-10-22T04:50:40;7.80;;;3.75;;
75297;SDS011;63896;45.990;18.688;2022-10-22T04:53:44;8.40;;;3.60;;
75297;SDS011;63896;45.990;18.688;2022-10-22T04:56:47;8.90;;;4.55;;
75297;SDS011;63896;45.990;18.688;2022-10-22T04:59:51;8.20;;;3.67;;
75297;SDS011;63896;45.990;18.688;2022-10-22T05:02:53;4.47;;;3.40;;
75297;SDS011;63896;45.990;18.688;2022-10-22T05:05:59;9.93;;;3.85;;
75297;SDS011;63896;45.990;18.688;2022-10-22T05:09:04;7.40;;;4.03;;
75297;SDS011;63896;45.990;18.688;2022-10-22T05:12:09;15.15;;;7.50;;
75297;SDS011;63896;45.990;18.688;2022-10-22T05:15:12;30.23;;;12.33;;
75297;SDS011;63896;45.990;18.688;2022-10-22T05:18:15;31.80;;;11.98;;
75297;SDS011;63896;45.990;18.688;2022-10-22T05:21:23;34.20;;;9.82;;
75297;SDS011;63896;45.990;18.688;2022-10-22T05:24:26;30.52;;;9.20;;
75297;SDS011;63896;45.990;18.688;2022-10-22T05:27:30;33.17;;;10.15;;
75297;SDS011;63896;45.990;18.688;2022-10-22T05:30:32;21.97;;;6.87;;
75297;SDS011;63896;45.990;18.688;2022-10-22T05:33:35;12.05;;;4.68;;
75297;SDS011;63896;45.990;18.688;2022-10-22T05:36:38;8.00;;;3.97;;
75297;SDS011;63896;45.990;18.688;2022-10-22T05:39:41;6.40;;;3.83;;
75297;SDS011;63896;45.990;18.688;2022-10-22T05:42:44;9.85;;;4.20;;
75297;SDS011;63896;45.990;18.688;2022-10-22T05:45:46;8.90;;;3.70;;
75297;SDS011;63896;45.990;18.688;2022-10-22T05:48:53;7.45;;;3.80;;
75297;SDS011;63896;45.990;18.688;2022-10-22T05:51:56;12.68;;;5.25;;
75297;SDS011;63896;45.990;18.688;2022-10-22T05:54:59;14.82;;;4.70;;
75297;SDS011;63896;45.990;18.688;2022-10-22T05:58:02;31.33;;;8.93;;
75297;SDS011;63896;45.990;18.688;2022-10-22T06:04:16;14.50;;;4.55;;
75297;SDS011;63896;45.990;18.688;2022-10-22T06:07:19;7.47;;;4.78;;
75297;SDS011;63896;45.990;18.688;2022-10-22T06:10:22;10.98;;;5.80;;
75297;SDS011;63896;45.990;18.688;2022-10-22T06:13:25;13.20;;;5.35;;
75297;SDS011;63896;45.990;18.688;2022-10-22T06:16:28;7.37;;;4.27;;
75297;SDS011;63896;45.990;18.688;2022-10-22T06:19:32;8.65;;;3.70;;
75297;SDS011;63896;45.990;18.688;2022-10-22T06:22:35;7.38;;;3.35;;
75297;SDS011;63896;45.990;18.688;2022-10-22T06:25:38;7.68;;;3.30;;
75297;SDS011;63896;45.990;18.688;2022-10-22T06:28:40;9.07;;;3.40;;
75297;SDS011;63896;45.990;18.688;2022-10-22T06:31:43;3.90;;;2.97;;
75297;SDS011;63896;45.990;18.688;2022-10-22T06:34:46;7.78;;;3.40;;
75297;SDS011;63896;45.990;18.688;2022-10-22T06:37:49;7.80;;;3.80;;
75297;SDS011;63896;45.990;18.688;2022-10-22T06:40:52;6.78;;;3.70;;
75297;SDS011;63896;45.990;18.688;2022-10-22T06:43:55;5.70;;;3.70;;
75297;SDS011;63896;45.990;18.688;2022-10-22T06:46:59;8.27;;;4.20;;
75297;SDS011;63896;45.990;18.688;2022-10-22T06:50:02;11.15;;;4.80;;
75297;SDS011;63896;45.990;18.688;2022-10-22T06:53:05;11.52;;;4.93;;
75297;SDS011;63896;45.990;18.688;2022-10-22T06:56:09;7.05;;;4.35;;
75297;SDS011;63896;45.990;18.688;2022-10-22T06:59:13;7.47;;;4.20;;
75297;SDS011;63896;45.990;18.688;2022-10-22T07:02:16;10.90;;;3.77;;
75297;SDS011;63896;45.990;18.688;2022-10-22T07:05:19;12.05;;;5.80;;
75297;SDS011;63896;45.990;18.688;2022-10-22T07:08:22;26.58;;;18.58;;
75297;SDS011;63896;45.990;18.688;2022-10-22T07:11:26;45.30;;;28.38;;
75297;SDS011;63896;45.990;18.688;2022-10-22T07:14:31;37.83;;;24.50;;
75297;SDS011;63896;45.990;18.688;2022-10-22T07:17:34;29.67;;;17.20;;
75297;SDS011;63896;45.990;18.688;2022-10-22T07:20:36;15.20;;;9.35;;
75297;SDS011;63896;45.990;18.688;2022-10-22T07:23:39;8.77;;;6.13;;
75297;SDS011;63896;45.990;18.688;2022-10-22T07:26:42;4.18;;;3.35;;
75297;SDS011;63896;45.990;18.688;2022-10-22T07:29:45;6.00;;;4.00;;
75297;SDS011;63896;45.990;18.688;2022-10-22T07:32:48;14.77;;;5.27;;
75297;SDS011;63896;45.990;18.688;2022-10-22T07:35:55;14.05;;;5.90;;
75297;SDS011;63896;45.990;18.688;2022-10-22T07:39:00;10.60;;;5.22;;
75297;SDS011;63896;45.990;18.688;2022-10-22T07:42:03;6.60;;;4.00;;
75297;SDS011;63896;45.990;18.688;2022-10-22T07:45:06;6.80;;;4.90;;
75297;SDS011;63896;45.990;18.688;2022-10-22T07:48:10;7.00;;;4.37;;
75297;SDS011;63896;45.990;18.688;2022-10-22T07:51:13;9.02;;;4.72;;
75297;SDS011;63896;45.990;18.688;2022-10-22T07:54:15;7.47;;;4.65;;
75297;SDS011;63896;45.990;18.688;2022-10-22T07:57:20;13.07;;;4.72;;
75297;SDS011;63896;45.990;18.688;2022-10-22T08:00:23;6.68;;;4.45;;
75297;SDS011;63896;45.990;18.688;2022-10-22T08:03:27;8.67;;;4.73;;
75297;SDS011;63896;45.990;18.688;2022-10-22T08:06:30;8.63;;;4.43;;
75297;SDS011;63896;45.990;18.688;2022-10-22T08:09:33;8.00;;;4.63;;
75297;SDS011;63896;45.990;18.688;2022-10-22T08:12:36;7.15;;;4.32;;
75297;SDS011;63896;45.990;18.688;2022-10-22T08:15:40;11.40;;;6.07;;
75297;SDS011;63896;45.990;18.688;2022-10-22T08:18:44;9.07;;;5.33;;
75297;SDS011;63896;45.990;18.688;2022-10-22T08:21:47;9.27;;;4.75;;
75297;SDS011;63896;45.990;18.688;2022-10-22T08:24:50;15.73;;;4.47;;
75297;SDS011;63896;45.990;18.688;2022-10-22T08:27:52;10.85;;;3.92;;
75297;SDS011;63896;45.990;18.688;2022-10-22T08:30:55;10.07;;;3.95;;
75297;SDS011;63896;45.990;18.688;2022-10-22T08:33:58;8.13;;;3.93;;
75297;SDS011;63896;45.990;18.688;2022-10-22T08:37:01;6.10;;;3.75;;
75297;SDS011;63896;45.990;18.688;2022-10-22T08:40:11;7.90;;;4.35;;
75297;SDS011;63896;45.990;18.688;2022-10-22T08:43:36;8.77;;;4.30;;
75297;SDS011;63896;45.990;18.688;2022-10-22T08:50:26;10.93;;;4.13;;
75297;SDS011;63896;45.990;18.688;2022-10-22T08:53:46;11.85;;;4.20;;
75297;SDS011;63896;45.990;18.688;2022-10-22T09:00:36;6.75;;;3.63;;
75297;SDS011;63896;45.990;18.688;2022-10-22T09:03:57;4.85;;;3.70;;
75297;SDS011;63896;45.990;18.688;2022-10-22T09:07:07;6.77;;;3.50;;
75297;SDS011;63896;45.990;18.688;2022-10-22T09:10:11;4.85;;;3.00;;
75297;SDS011;63896;45.990;18.688;2022-10-22T09:13:16;4.82;;;3.40;;
75297;SDS011;63896;45.990;18.688;2022-10-22T09:16:24;7.65;;;2.80;;
75297;SDS011;63896;45.990;18.688;2022-10-22T09:19:37;6.93;;;2.75;;
75297;SDS011;63896;45.990;18.688;2022-10-22T09:22:56;7.60;;;3.37;;
75297;SDS011;63896;45.990;18.688;2022-10-22T09:26:14;7.53;;;3.67;;
75297;SDS011;63896;45.990;18.688;2022-10-22T09:29:19;5.30;;;3.42;;
75297;SDS011;63896;45.990;18.688;2022-10-22T09:32:26;7.15;;;3.63;;
75297;SDS011;63896;45.990;18.688;2022-10-22T09:35:29;8.73;;;3.50;;
75297;SDS011;63896;45.990;18.688;2022-10-22T09:38:39;5.53;;;3.60;;
75297;SDS011;63896;45.990;18.688;2022-10-22T09:41:46;4.50;;;2.90;;
75297;SDS011;63896;45.990;18.688;2022-10-22T09:44:57;5.10;;;3.25;;
75297;SDS011;63896;45.990;18.688;2022-10-22T09:48:03;5.82;;;3.17;;
75297;SDS011;63896;45.990;18.688;2022-10-22T09:51:14;3.92;;;3.10;;
75297;SDS011;63896;45.990;18.688;2022-10-22T09:54:23;4.50;;;2.47;;
75297;SDS011;63896;45.990;18.688;2022-10-22T09:57:29;5.93;;;3.30;;
75297;SDS011;63896;45.990;18.688;2022-10-22T10:00:31;5.72;;;2.95;;
75297;SDS011;63896;45.990;18.688;2022-10-22T10:03:34;5.88;;;3.35;;
75297;SDS011;63896;45.990;18.688;2022-10-22T10:06:38;5.97;;;3.38;;
75297;SDS011;63896;45.990;18.688;2022-10-22T10:09:42;5.93;;;3.10;;
75297;SDS011;63896;45.990;18.688;2022-10-22T10:12:56;4.82;;;3.22;;
75297;SDS011;63896;45.990;18.688;2022-10-22T10:35:27;3.85;;;2.50;;
75297;SDS011;63896;45.990;18.688;2022-10-22T10:42:38;4.53;;;2.97;;
75297;SDS011;63896;45.990;18.688;2022-10-22T10:45:58;4.72;;;2.90;;
75297;SDS011;63896;45.990;18.688;2022-10-22T10:49:21;5.25;;;3.10;;
75297;SDS011;63896;45.990;18.688;2022-10-22T10:52:33;4.55;;;2.50;;
75297;SDS011;63896;45.990;18.688;2022-10-22T10:55:54;11.98;;;2.65;;
75297;SDS011;63896;45.990;18.688;2022-10-22T11:02:19;4.80;;;3.38;;
75297;SDS011;63896;45.990;18.688;2022-10-22T11:09:03;4.20;;;2.67;;
75297;SDS011;63896;45.990;18.688;2022-10-22T11:12:20;4.53;;;2.33;;
75297;SDS011;63896;45.990;18.688;2022-10-22T11:15:35;3.00;;;2.17;;
75297;SDS011;63896;45.990;18.688;2022-10-22T11:18:46;4.97;;;2.28;;
75297;SDS011;63896;45.990;18.688;2022-10-22T11:22:02;5.32;;;2.75;;
75297;SDS011;63896;45.990;18.688;2022-10-22T11:28:34;11.57;;;2.40;;
75297;SDS011;63896;45.990;18.688;2022-10-22T11:31:43;5.63;;;1.93;;
75297;SDS011;63896;45.990;18.688;2022-10-22T11:34:50;4.65;;;2.08;;
75297;SDS011;63896;45.990;18.688;2022-10-22T11:38:02;6.50;;;2.80;;
75297;SDS011;63896;45.990;18.688;2022-10-22T11:41:12;7.97;;;3.15;;
75297;SDS011;63896;45.990;18.688;2022-10-22T11:44:20;6.90;;;3.03;;
75297;SDS011;63896;45.990;18.688;2022-10-22T11:47:26;3.80;;;2.30;;
75297;SDS011;63896;45.990;18.688;2022-10-22T11:53:46;7.80;;;2.80;;
75297;SDS011;63896;45.990;18.688;2022-10-22T12:00:34;15.45;;;5.63;;
75297;SDS011;63896;45.990;18.688;2022-10-22T12:17:31;8.10;;;4.00;;
75297;SDS011;63896;45.990;18.688;2022-10-22T12:20:34;10.03;;;4.70;;
75297;SDS011;63896;45.990;18.688;2022-10-22T12:23:37;12.85;;;5.90;;
75297;SDS011;63896;45.990;18.688;2022-10-22T12:26:40;11.63;;;5.05;;
75297;SDS011;63896;45.990;18.688;2022-10-22T12:29:43;15.90;;;6.55;;
75297;SDS011;63896;45.990;18.688;2022-10-22T12:32:45;14.88;;;6.25;;
75297;SDS011;63896;45.990;18.688;2022-10-22T12:35:49;14.03;;;5.73;;
75297;SDS011;63896;45.990;18.688;2022-10-22T12:38:58;13.02;;;5.03;;
75297;SDS011;63896;45.990;18.688;2022-10-22T12:42:03;13.63;;;5.10;;
75297;SDS011;63896;45.990;18.688;2022-10-22T12:45:07;17.98;;;7.38;;
75297;SDS011;63896;45.990;18.688;2022-10-22T12:48:27;22.05;;;7.45;;
75297;SDS011;63896;45.990;18.688;2022-10-22T12:51:35;20.77;;;8.10;;
75297;SDS011;63896;45.990;18.688;2022-10-22T12:54:38;26.67;;;8.10;;
75297;SDS011;63896;45.990;18.688;2022-10-22T12:57:41;12.15;;;5.97;;
75297;SDS011;63896;45.990;18.688;2022-10-22T13:00:44;12.98;;;5.45;;
75297;SDS011;63896;45.990;18.688;2022-10-22T13:03:49;11.80;;;5.43;;
75297;SDS011;63896;45.990;18.688;2022-10-22T13:10:15;12.10;;;4.25;;
75297;SDS011;63896;45.990;18.688;2022-10-22T13:13:31;8.57;;;3.85;;
75297;SDS011;63896;45.990;18.688;2022-10-22T13:20:20;4.95;;;3.55;;
75297;SDS011;63896;45.990;18.688;2022-10-22T13:23:25;5.17;;;3.40;;
75297;SDS011;63896;45.990;18.688;2022-10-22T13:26:30;10.73;;;3.75;;
75297;SDS011;63896;45.990;18.688;2022-10-22T13:29:36;9.82;;;3.20;;
75297;SDS011;63896;45.990;18.688;2022-10-22T13:32:47;11.38;;;4.88;;
75297;SDS011;63896;45.990;18.688;2022-10-22T13:35:52;11.25;;;4.63;;
75297;SDS011;63896;45.990;18.688;2022-10-22T13:38:56;9.73;;;5.17;;
75297;SDS011;63896;45.990;18.688;2022-10-22T13:41:59;9.15;;;4.82;;
75297;SDS011;63896;45.990;18.688;2022-10-22T13:45:03;9.07;;;4.90;;
75297;SDS011;63896;45.990;18.688;2022-10-22T13:48:12;8.75;;;4.40;;
75297;SDS011;63896;45.990;18.688;2022-10-22T13:51:18;8.75;;;3.78;;
75297;SDS011;63896;45.990;18.688;2022-10-22T13:54:26;5.60;;;4.07;;
75297;SDS011;63896;45.990;18.688;2022-10-22T13:57:28;9.50;;;3.50;;
75297;SDS011;63896;45.990;18.688;2022-10-22T14:00:31;6.93;;;3.50;;
75297;SDS011;63896;45.990;18.688;2022-10-22T14:03:35;5.10;;;3.33;;
75297;SDS011;63896;45.990;18.688;2022-10-22T14:06:39;8.57;;;3.35;;
75297;SDS011;63896;45.990;18.688;2022-10-22T14:09:42;5.17;;;2.93;;
75297;SDS011;63896;45.990;18.688;2022-10-22T14:12:45;8.18;;;3.08;;
75297;SDS011;63896;45.990;18.688;2022-10-22T14:15:54;12.93;;;3.60;;
75297;SDS011;63896;45.990;18.688;2022-10-22T14:18:57;7.68;;;3.20;;
75297;SDS011;63896;45.990;18.688;2022-10-22T14:22:02;10.45;;;4.63;;
75297;SDS011;63896;45.990;18.688;2022-10-22T14:25:05;16.83;;;7.03;;
75297;SDS011;63896;45.990;18.688;2022-10-22T14:28:08;18.65;;;7.72;;
75297;SDS011;63896;45.990;18.688;2022-10-22T14:31:12;14.13;;;6.70;;
75297;SDS011;63896;45.990;18.688;2022-10-22T14:34:15;14.60;;;6.82;;
75297;SDS011;63896;45.990;18.688;2022-10-22T14:37:18;15.70;;;8.32;;
75297;SDS011;63896;45.990;18.688;2022-10-22T14:40:22;19.80;;;8.60;;
75297;SDS011;63896;45.990;18.688;2022-10-22T14:43:26;21.67;;;8.55;;
75297;SDS011;63896;45.990;18.688;2022-10-22T14:46:32;18.23;;;9.07;;
75297;SDS011;63896;45.990;18.688;2022-10-22T14:49:35;21.30;;;10.10;;
75297;SDS011;63896;45.990;18.688;2022-10-22T14:52:38;25.10;;;11.60;;
75297;SDS011;63896;45.990;18.688;2022-10-22T14:55:46;16.63;;;9.93;;
75297;SDS011;63896;45.990;18.688;2022-10-22T15:00:02;28.48;;;14.73;;
75297;SDS011;63896;45.990;18.688;2022-10-22T15:03:06;35.80;;;19.88;;
75297;SDS011;63896;45.990;18.688;2022-10-22T15:06:09;34.75;;;20.13;;
75297;SDS011;63896;45.990;18.688;2022-10-22T15:09:13;31.77;;;17.90;;
75297;SDS011;63896;45.990;18.688;2022-10-22T15:12:16;24.37;;;12.40;;
75297;SDS011;63896;45.990;18.688;2022-10-22T15:15:19;20.65;;;10.93;;
75297;SDS011;63896;45.990;18.688;2022-10-22T15:18:25;27.92;;;14.43;;
75297;SDS011;63896;45.990;18.688;2022-10-22T15:21:28;24.40;;;12.98;;
75297;SDS011;63896;45.990;18.688;2022-10-22T15:24:31;26.40;;;14.10;;
75297;SDS011;63896;45.990;18.688;2022-10-22T15:27:34;20.63;;;11.63;;
75297;SDS011;63896;45.990;18.688;2022-10-22T15:30:37;12.60;;;7.85;;
75297;SDS011;63896;45.990;18.688;2022-10-22T15:33:41;16.52;;;7.10;;
75297;SDS011;63896;45.990;18.688;2022-10-22T15:36:44;16.27;;;6.10;;
75297;SDS011;63896;45.990;18.688;2022-10-22T15:39:47;12.88;;;5.00;;
75297;SDS011;63896;45.990;18.688;2022-10-22T15:42:50;13.10;;;3.77;;
75297;SDS011;63896;45.990;18.688;2022-10-22T15:46:06;6.55;;;2.67;;
75297;SDS011;63896;45.990;18.688;2022-10-22T15:49:10;11.73;;;2.17;;
75297;SDS011;63896;45.990;18.688;2022-10-22T15:52:13;5.53;;;1.63;;
75297;SDS011;63896;45.990;18.688;2022-10-22T15:55:17;3.92;;;1.70;;
75297;SDS011;63896;45.990;18.688;2022-10-22T15:58:20;4.33;;;2.50;;
75297;SDS011;63896;45.990;18.688;2022-10-22T16:01:24;4.45;;;2.22;;
75297;SDS011;63896;45.990;18.688;2022-10-22T16:04:28;5.95;;;1.83;;
75297;SDS011;63896;45.990;18.688;2022-10-22T16:07:30;2.85;;;1.60;;
75297;SDS011;63896;45.990;18.688;2022-10-22T16:10:33;2.70;;;1.60;;
75297;SDS011;63896;45.990;18.688;2022-10-22T16:13:37;3.13;;;1.47;;
75297;SDS011;63896;45.990;18.688;2022-10-22T16:16:44;2.33;;;1.38;;
75297;SDS011;63896;45.990;18.688;2022-10-22T16:19:48;5.70;;;1.92;;
75297;SDS011;63896;45.990;18.688;2022-10-22T16:22:51;4.55;;;1.73;;
75297;SDS011;63896;45.990;18.688;2022-10-22T16:25:54;3.00;;;1.90;;
75297;SDS011;63896;45.990;18.688;2022-10-22T16:28:57;4.07;;;2.37;;
75297;SDS011;63896;45.990;18.688;2022-10-22T16:32:00;5.03;;;1.85;;
75297;SDS011;63896;45.990;18.688;2022-10-22T16:35:03;4.72;;;1.90;;
75297;SDS011;63896;45.990;18.688;2022-10-22T16:38:06;3.03;;;1.70;;
75297;SDS011;63896;45.990;18.688;2022-10-22T16:41:15;2.92;;;1.83;;
75297;SDS011;63896;45.990;18.688;2022-10-22T16:44:21;3.90;;;1.53;;
75297;SDS011;63896;45.990;18.688;2022-10-22T16:47:25;5.43;;;2.28;;
75297;SDS011;63896;45.990;18.688;2022-10-22T16:50:27;4.03;;;1.92;;
75297;SDS011;63896;45.990;18.688;2022-10-22T16:53:30;4.57;;;2.20;;
75297;SDS011;63896;45.990;18.688;2022-10-22T16:56:33;3.78;;;2.22;;
75297;SDS011;63896;45.990;18.688;2022-10-22T16:59:38;6.10;;;2.67;;
75297;SDS011;63896;45.990;18.688;2022-10-22T17:02:40;5.60;;;3.45;;
75297;SDS011;63896;45.990;18.688;2022-10-22T17:05:44;5.50;;;2.88;;
75297;SDS011;63896;45.990;18.688;2022-10-22T17:08:47;5.85;;;3.17;;
75297;SDS011;63896;45.990;18.688;2022-10-22T17:11:50;5.55;;;2.65;;
75297;SDS011;63896;45.990;18.688;2022-10-22T17:14:53;5.13;;;2.90;;
75297;SDS011;63896;45.990;18.688;2022-10-22T17:17:58;5.72;;;3.20;;
75297;SDS011;63896;45.990;18.688;2022-10-22T17:21:02;5.63;;;3.55;;
75297;SDS011;63896;45.990;18.688;2022-10-22T17:24:06;6.15;;;2.58;;
75297;SDS011;63896;45.990;18.688;2022-10-22T17:27:09;6.45;;;2.70;;
75297;SDS011;63896;45.990;18.688;2022-10-22T17:30:17;6.77;;;3.43;;
75297;SDS011;63896;45.990;18.688;2022-10-22T17:33:27;6.85;;;2.72;;
75297;SDS011;63896;45.990;18.688;2022-10-22T17:36:31;6.88;;;2.80;;
75297;SDS011;63896;45.990;18.688;2022-10-22T17:39:37;5.70;;;2.63;;
75297;SDS011;63896;45.990;18.688;2022-10-22T17:42:40;8.27;;;2.53;;
75297;SDS011;63896;45.990;18.688;2022-10-22T17:45:43;7.77;;;3.00;;
75297;SDS011;63896;45.990;18.688;2022-10-22T17:48:53;4.43;;;2.50;;
75297;SDS011;63896;45.990;18.688;2022-10-22T17:51:58;8.98;;;3.55;;
75297;SDS011;63896;45.990;18.688;2022-10-22T17:55:02;7.45;;;3.45;;
75297;SDS011;63896;45.990;18.688;2022-10-22T18:03:37;8.57;;;4.60;;
75297;SDS011;63896;45.990;18.688;2022-10-22T18:06:40;7.60;;;4.25;;
75297;SDS011;63896;45.990;18.688;2022-10-22T18:09:44;10.23;;;4.00;;
75297;SDS011;63896;45.990;18.688;2022-10-22T18:12:47;8.82;;;3.72;;
75297;SDS011;63896;45.990;18.688;2022-10-22T18:15:57;6.57;;;3.33;;
75297;SDS011;63896;45.990;18.688;2022-10-22T18:22:49;6.80;;;4.00;;
75297;SDS011;63896;45.990;18.688;2022-10-22T18:25:53;6.88;;;4.10;;
75297;SDS011;63896;45.990;18.688;2022-10-22T18:29:12;4.90;;;3.00;;
75297;SDS011;63896;45.990;18.688;2022-10-22T18:32:41;4.93;;;2.75;;
75297;SDS011;63896;45.990;18.688;2022-10-22T18:35:44;7.23;;;3.00;;
75297;SDS011;63896;45.990;18.688;2022-10-22T18:38:55;5.22;;;2.83;;
75297;SDS011;63896;45.990;18.688;2022-10-22T18:42:00;6.90;;;3.33;;
75297;SDS011;63896;45.990;18.688;2022-10-22T18:45:07;7.05;;;4.28;;
75297;SDS011;63896;45.990;18.688;2022-10-22T18:48:13;13.02;;;6.15;;
75297;SDS011;63896;45.990;18.688;2022-10-22T18:51:18;9.97;;;5.40;;
75297;SDS011;63896;45.990;18.688;2022-10-22T18:54:22;14.65;;;6.93;;
75297;SDS011;63896;45.990;18.688;2022-10-22T18:57:26;13.32;;;7.20;;
75297;SDS011;63896;45.990;18.688;2022-10-22T19:00:29;12.60;;;6.68;;
75297;SDS011;63896;45.990;18.688;2022-10-22T19:03:32;11.35;;;5.88;;
75297;SDS011;63896;45.990;18.688;2022-10-22T19:06:36;6.87;;;4.93;;
75297;SDS011;63896;45.990;18.688;2022-10-22T19:09:41;8.43;;;5.05;;
75297;SDS011;63896;45.990;18.688;2022-10-22T19:12:44;7.07;;;4.03;;
75297;SDS011;63896;45.990;18.688;2022-10-22T19:15:47;6.80;;;3.72;;
75297;SDS011;63896;45.990;18.688;2022-10-22T19:19:13;6.13;;;4.40;;
75297;SDS011;63896;45.990;18.688;2022-10-22T19:22:16;7.80;;;3.80;;
75297;SDS011;63896;45.990;18.688;2022-10-22T19:25:19;7.13;;;3.88;;
75297;SDS011;63896;45.990;18.688;2022-10-22T19:28:22;7.43;;;4.97;;
75297;SDS011;63896;45.990;18.688;2022-10-22T19:31:25;8.23;;;4.45;;
75297;SDS011;63896;45.990;18.688;2022-10-22T19:34:31;8.25;;;4.95;;
75297;SDS011;63896;45.990;18.688;2022-10-22T19:37:34;9.93;;;5.90;;
75297;SDS011;63896;45.990;18.688;2022-10-22T19:40:41;9.60;;;5.93;;
75297;SDS011;63896;45.990;18.688;2022-10-22T19:43:46;5.97;;;3.42;;
75297;SDS011;63896;45.990;18.688;2022-10-22T19:46:52;3.75;;;2.40;;
75297;SDS011;63896;45.990;18.688;2022-10-22T19:49:55;5.22;;;2.95;;
75297;SDS011;63896;45.990;18.688;2022-10-22T19:52:58;6.17;;;4.10;;
75297;SDS011;63896;45.990;18.688;2022-10-22T19:56:07;8.15;;;4.38;;
75297;SDS011;63896;45.990;18.688;2022-10-22T19:59:11;11.95;;;5.38;;
75297;SDS011;63896;45.990;18.688;2022-10-22T20:02:17;9.77;;;5.10;;
75297;SDS011;63896;45.990;18.688;2022-10-22T20:05:20;13.13;;;7.07;;
75297;SDS011;63896;45.990;18.688;2022-10-22T20:08:24;7.47;;;4.43;;
75297;SDS011;63896;45.990;18.688;2022-10-22T20:11:27;8.02;;;4.00;;
75297;SDS011;63896;45.990;18.688;2022-10-22T20:14:31;6.25;;;4.30;;